createdAt,value
2019-03-19T00:01:24.560Z,9.93
2019-03-19T00:03:52.312Z,9.50
2019-03-19T00:06:20.088Z,9.80
2019-03-19T00:08:47.845Z,9.23
2019-03-19T00:11:15.608Z,10.57
2019-03-19T00:13:43.387Z,10.73
2019-03-19T00:16:11.256Z,10.00
2019-03-19T00:18:38.891Z,10.37
2019-03-19T00:21:06.684Z,10.83
2019-03-19T00:23:34.669Z,11.80
2019-03-19T00:26:02.323Z,10.30
2019-03-19T00:28:30.093Z,10.40
2019-03-19T00:30:58.064Z,9.57
2019-03-19T00:33:25.833Z,9.33
2019-03-19T00:35:53.471Z,8.77
2019-03-19T00:38:21.356Z,9.23
2019-03-19T00:40:49.230Z,10.13
2019-03-19T00:43:16.988Z,8.80
2019-03-19T00:45:44.739Z,10.10
2019-03-19T00:48:12.529Z,11.97
2019-03-19T00:50:40.286Z,10.33
2019-03-19T00:53:07.980Z,11.10
2019-03-19T00:55:40.677Z,6.90
2019-03-19T00:58:05.541Z,6.30
2019-03-19T01:00:33.401Z,6.60
2019-03-19T01:03:01.272Z,6.40
2019-03-19T01:05:28.895Z,6.77
2019-03-19T01:07:56.887Z,7.03
2019-03-19T01:10:24.528Z,7.07
2019-03-19T01:12:52.256Z,6.47
2019-03-19T01:15:20.103Z,6.80
2019-03-19T01:17:47.860Z,7.23
2019-03-19T01:20:15.932Z,5.70
2019-03-19T01:22:43.697Z,6.70
2019-03-19T01:25:11.596Z,6.50
2019-03-19T01:27:39.450Z,6.57
2019-03-19T01:30:13.849Z,5.77
2019-03-19T01:32:41.520Z,5.53
2019-03-19T01:35:09.296Z,6.73
2019-03-19T01:37:36.993Z,6.60
2019-03-19T01:40:06.469Z,6.53
2019-03-19T01:42:34.220Z,6.33
2019-03-19T01:45:02.064Z,6.43
2019-03-19T01:47:29.757Z,5.43
2019-03-19T01:49:57.428Z,5.87
2019-03-19T01:52:25.297Z,5.50
2019-03-19T01:54:52.923Z,5.50
2019-03-19T01:57:20.724Z,5.73
2019-03-19T01:59:48.407Z,5.77
2019-03-19T02:02:16.132Z,5.30
2019-03-19T02:04:43.912Z,5.40
2019-03-19T02:07:11.788Z,7.30
2019-03-19T02:09:39.735Z,6.10
2019-03-19T02:12:07.519Z,5.37
2019-03-19T02:14:35.286Z,5.10
2019-03-19T02:17:03.061Z,5.27
2019-03-19T02:19:30.688Z,5.37
2019-03-19T02:21:58.480Z,5.43
2019-03-19T02:24:26.359Z,4.33
2019-03-19T02:26:54.222Z,4.43
2019-03-19T02:29:21.981Z,4.30
2019-03-19T02:31:49.752Z,4.40
2019-03-19T02:34:17.520Z,4.50
2019-03-19T02:36:45.383Z,4.47
2019-03-19T02:39:13.044Z,3.87
2019-03-19T02:41:40.822Z,4.03
2019-03-19T02:44:08.568Z,3.40
2019-03-19T02:46:36.232Z,4.00
2019-03-19T02:49:04.114Z,3.57
2019-03-19T02:51:32.284Z,4.10
2019-03-19T02:53:59.934Z,3.37
2019-03-19T02:56:33.193Z,4.10
2019-03-19T02:58:57.029Z,4.43
2019-03-19T03:01:24.667Z,3.90
2019-03-19T03:03:52.441Z,4.67
2019-03-19T03:06:20.214Z,4.23
2019-03-19T03:08:47.979Z,4.27
2019-03-19T03:11:15.737Z,4.17
2019-03-19T03:13:43.411Z,3.97
2019-03-19T03:16:11.281Z,3.60
2019-03-19T03:18:39.253Z,4.73
2019-03-19T03:21:07.009Z,5.20
2019-03-19T03:23:34.661Z,5.50
2019-03-19T03:26:02.399Z,5.70
2019-03-19T03:28:30.315Z,5.90
2019-03-19T03:30:58.082Z,4.83
2019-03-19T03:33:25.871Z,5.10
2019-03-19T03:35:53.560Z,4.27
2019-03-19T03:38:21.481Z,4.07
2019-03-19T03:40:49.459Z,3.83
2019-03-19T03:43:17.213Z,3.60
2019-03-19T03:45:44.980Z,3.87
2019-03-19T03:48:12.955Z,4.00
2019-03-19T03:50:40.820Z,3.63
2019-03-19T03:53:08.582Z,3.87
2019-03-19T03:55:36.370Z,4.23
2019-03-19T03:58:04.117Z,4.20
2019-03-19T04:00:32.501Z,4.10
2019-03-19T04:03:00.369Z,3.77
2019-03-19T04:05:28.236Z,4.40
2019-03-19T04:07:56.009Z,4.30
2019-03-19T04:10:23.780Z,4.20
2019-03-19T04:12:51.474Z,4.77
2019-03-19T04:15:19.299Z,7.20
2019-03-19T04:17:47.069Z,5.63
2019-03-19T04:20:18.412Z,4.37
2019-03-19T04:22:46.110Z,4.57
2019-03-19T04:25:13.840Z,3.70
2019-03-19T04:27:41.814Z,4.43
2019-03-19T04:30:16.833Z,4.30
2019-03-19T04:32:44.730Z,4.93
2019-03-19T04:35:12.589Z,6.00
2019-03-19T04:37:40.348Z,5.73
2019-03-19T04:40:12.322Z,5.20
2019-03-19T04:42:40.280Z,5.03
2019-03-19T04:45:09.493Z,5.00
2019-03-19T04:47:37.252Z,4.87
2019-03-19T04:50:07.478Z,4.85
2019-03-19T04:52:35.342Z,5.17
2019-03-19T04:55:03.942Z,5.67
2019-03-19T04:57:31.576Z,4.77
2019-03-19T04:59:59.352Z,4.63
2019-03-19T05:02:27.207Z,5.20
2019-03-19T05:04:54.990Z,4.80
2019-03-19T05:07:22.864Z,4.77
2019-03-19T05:09:50.521Z,5.00
2019-03-19T05:12:18.384Z,4.77
2019-03-19T05:14:46.157Z,4.97
2019-03-19T05:17:14.030Z,4.63
2019-03-19T05:19:41.680Z,5.00
2019-03-19T05:22:09.465Z,4.40
2019-03-19T05:24:37.149Z,4.90
2019-03-19T05:27:04.876Z,4.37
2019-03-19T05:29:32.719Z,10.30
2019-03-19T05:32:00.620Z,12.00
2019-03-19T05:34:28.383Z,10.87
2019-03-19T05:36:56.459Z,9.30
2019-03-19T05:39:24.091Z,11.80
2019-03-19T05:41:51.890Z,9.47
2019-03-19T05:44:19.580Z,9.73
2019-03-19T05:46:47.516Z,10.30
2019-03-19T05:49:15.171Z,10.07
2019-03-19T05:51:42.855Z,9.60
2019-03-19T05:54:10.629Z,9.40
2019-03-19T05:56:38.587Z,9.33
2019-03-19T05:59:06.364Z,7.70
2019-03-19T06:01:34.225Z,6.97
2019-03-19T06:04:01.929Z,4.73
2019-03-19T06:06:29.557Z,9.57
2019-03-19T06:08:57.424Z,5.60
2019-03-19T06:11:25.080Z,4.63
2019-03-19T06:13:52.844Z,4.80
2019-03-19T06:16:20.605Z,4.67
2019-03-19T06:18:48.386Z,5.03
2019-03-19T06:21:16.140Z,4.60
2019-03-19T06:23:44.199Z,4.97
2019-03-19T06:26:11.983Z,7.03
2019-03-19T06:28:39.733Z,5.60
2019-03-19T06:31:07.526Z,5.77
2019-03-19T06:33:35.289Z,5.97
2019-03-19T06:36:02.928Z,7.40
2019-03-19T06:38:30.721Z,7.57
2019-03-19T06:40:58.485Z,5.33
2019-03-19T06:43:26.451Z,5.20
2019-03-19T06:45:54.421Z,3.93
2019-03-19T06:48:22.109Z,4.50
2019-03-19T06:50:50.055Z,4.77
2019-03-19T06:53:17.808Z,3.90
2019-03-19T06:55:45.593Z,4.40
2019-03-19T06:58:13.561Z,4.13
2019-03-19T07:00:41.431Z,5.10
2019-03-19T07:03:09.294Z,6.07
2019-03-19T07:05:37.162Z,4.40
2019-03-19T07:08:05.753Z,4.85
2019-03-19T07:10:33.616Z,4.07
2019-03-19T07:13:01.483Z,3.33
2019-03-19T07:15:29.462Z,3.30
2019-03-19T07:17:57.420Z,3.60
2019-03-19T07:20:26.016Z,3.70
2019-03-19T07:22:53.783Z,3.80
2019-03-19T07:25:21.645Z,3.10
2019-03-19T07:27:49.515Z,3.30
2019-03-19T07:30:18.820Z,2.83
2019-03-19T07:32:46.577Z,2.90
2019-03-19T07:35:14.528Z,2.80
2019-03-19T07:37:42.508Z,3.43
2019-03-19T07:40:11.522Z,3.60
2019-03-19T07:42:39.277Z,3.43
2019-03-19T07:45:08.981Z,2.60
2019-03-19T07:47:36.763Z,3.10
2019-03-19T07:50:07.085Z,3.58
2019-03-19T07:52:34.850Z,2.93
2019-03-19T07:55:02.503Z,2.97
2019-03-19T07:57:30.230Z,3.47
2019-03-19T07:59:57.972Z,2.50
2019-03-19T08:02:25.808Z,3.27
2019-03-19T08:04:53.501Z,2.50
2019-03-19T08:07:21.234Z,3.63
2019-03-19T08:09:49.109Z,3.00
2019-03-19T08:12:16.978Z,4.20
2019-03-19T08:14:44.850Z,3.37
2019-03-19T08:17:12.715Z,2.80
2019-03-19T08:19:40.436Z,3.47
2019-03-19T08:22:08.350Z,3.17
2019-03-19T08:24:36.212Z,3.63
2019-03-19T08:27:04.080Z,4.70
2019-03-19T08:29:31.788Z,3.17
2019-03-19T08:31:59.621Z,2.80
2019-03-19T08:34:27.373Z,3.10
2019-03-19T08:36:55.156Z,3.60
2019-03-19T08:39:22.909Z,4.20
2019-03-19T08:41:50.685Z,2.90
2019-03-19T08:44:27.440Z,3.53
2019-03-19T08:46:47.949Z,3.47
2019-03-19T08:49:15.824Z,3.43
2019-03-19T08:51:43.580Z,3.47
2019-03-19T08:54:11.452Z,3.47
2019-03-19T08:56:39.320Z,4.87
2019-03-19T08:59:07.085Z,4.43
2019-03-19T09:01:34.959Z,4.67
2019-03-19T09:04:02.712Z,3.40
2019-03-19T09:06:30.490Z,4.20
2019-03-19T09:08:58.261Z,4.03
2019-03-19T09:11:26.126Z,3.87
2019-03-19T09:13:53.999Z,3.70
2019-03-19T09:16:21.635Z,4.33
2019-03-19T09:18:49.299Z,3.50
2019-03-19T09:21:16.979Z,3.10
2019-03-19T09:23:44.701Z,3.67
2019-03-19T09:26:12.617Z,4.20
2019-03-19T09:28:40.386Z,3.70
2019-03-19T09:31:08.147Z,4.00
2019-03-19T09:33:36.017Z,5.10
2019-03-19T09:36:03.758Z,3.97
2019-03-19T09:38:31.440Z,4.30
2019-03-19T09:40:59.091Z,4.03
2019-03-19T09:43:26.876Z,7.03
2019-03-19T09:45:54.534Z,3.70
2019-03-19T09:48:22.287Z,4.13
2019-03-19T09:50:49.993Z,3.33
2019-03-19T09:53:18.763Z,3.93
2019-03-19T09:55:46.831Z,4.53
2019-03-19T09:58:14.589Z,4.80
2019-03-19T10:00:42.364Z,3.93
2019-03-19T10:03:10.072Z,3.67
2019-03-19T10:05:37.780Z,2.93
2019-03-19T10:08:05.552Z,4.40
2019-03-19T10:10:33.480Z,3.47
2019-03-19T10:13:01.447Z,3.60
2019-03-19T10:15:29.355Z,4.60
2019-03-19T10:17:57.231Z,4.57
2019-03-19T10:20:25.218Z,4.83
2019-03-19T10:22:53.072Z,3.73
2019-03-19T10:25:20.945Z,3.93
2019-03-19T10:27:48.812Z,3.43
2019-03-19T10:30:20.885Z,3.27
2019-03-19T10:32:48.747Z,2.83
2019-03-19T10:35:16.492Z,3.70
2019-03-19T10:37:44.162Z,3.03
2019-03-19T10:40:12.759Z,3.00
2019-03-19T10:42:40.441Z,3.87
2019-03-19T10:45:15.356Z,3.00
2019-03-19T10:47:43.220Z,2.30
2019-03-19T10:50:12.495Z,2.10
2019-03-19T10:52:40.397Z,2.00
2019-03-19T10:55:08.266Z,2.23
2019-03-19T10:57:36.033Z,2.90
2019-03-19T11:00:08.824Z,3.50
2019-03-19T11:02:36.479Z,2.53
2019-03-19T11:05:05.880Z,2.80
2019-03-19T11:07:33.528Z,2.53
2019-03-19T11:10:01.518Z,3.10
2019-03-19T11:12:29.487Z,3.40
2019-03-19T11:14:57.232Z,4.20
2019-03-19T11:17:25.012Z,3.10
2019-03-19T11:19:52.795Z,2.90
2019-03-19T11:22:20.528Z,2.80
2019-03-19T11:24:48.207Z,3.00
2019-03-19T11:27:16.078Z,2.40
2019-03-19T11:29:43.956Z,3.17
2019-03-19T11:32:11.709Z,2.77
2019-03-19T11:34:39.489Z,2.53
2019-03-19T11:37:07.343Z,2.80
2019-03-19T11:39:35.221Z,3.00
2019-03-19T11:42:02.999Z,3.00
2019-03-19T11:44:31.244Z,2.00
2019-03-19T11:47:00.007Z,3.23
2019-03-19T11:49:27.717Z,2.33
2019-03-19T11:51:55.536Z,2.20
2019-03-19T11:54:23.351Z,2.13
2019-03-19T11:56:51.219Z,3.13
2019-03-19T11:59:18.940Z,2.83
2019-03-19T12:01:46.847Z,2.30
2019-03-19T12:04:14.721Z,2.27
2019-03-19T12:06:42.355Z,4.00
2019-03-19T12:09:10.193Z,1.80
2019-03-19T12:11:37.923Z,4.83
2019-03-19T12:14:05.795Z,2.87
2019-03-19T12:16:33.553Z,1.63
2019-03-19T12:19:01.193Z,3.33
2019-03-19T12:21:28.857Z,3.07
2019-03-19T12:23:56.545Z,2.20
2019-03-19T12:26:24.222Z,2.20
2019-03-19T12:28:51.926Z,2.60
2019-03-19T12:31:19.737Z,5.03
2019-03-19T12:33:47.416Z,2.03
2019-03-19T12:36:15.143Z,2.30
2019-03-19T12:38:43.029Z,2.13
2019-03-19T12:41:10.695Z,2.20
2019-03-19T12:43:38.462Z,1.87
2019-03-19T12:46:06.541Z,2.83
2019-03-19T12:48:34.218Z,1.70
2019-03-19T12:51:01.918Z,2.07
2019-03-19T12:53:29.543Z,2.00
2019-03-19T12:55:57.388Z,1.53
2019-03-19T12:58:25.362Z,1.70
2019-03-19T13:00:53.007Z,1.23
2019-03-19T13:03:20.790Z,1.27
2019-03-19T13:05:48.435Z,1.33
2019-03-19T13:08:16.212Z,1.50
2019-03-19T13:10:43.983Z,1.33
2019-03-19T13:13:11.735Z,2.10
2019-03-19T13:15:39.728Z,1.40
2019-03-19T13:18:07.613Z,2.37
2019-03-19T13:20:35.360Z,1.87
2019-03-19T13:23:03.538Z,1.90
2019-03-19T13:25:31.322Z,2.10
2019-03-19T13:27:59.051Z,1.90
2019-03-19T13:30:27.545Z,2.33
2019-03-19T13:32:55.420Z,2.43
2019-03-19T13:35:23.163Z,1.97
2019-03-19T13:37:51.035Z,1.90
2019-03-19T13:40:19.049Z,1.80
2019-03-19T13:42:46.767Z,2.63
2019-03-19T13:45:18.240Z,2.37
2019-03-19T13:47:46.125Z,1.83
2019-03-19T13:50:14.598Z,2.27
2019-03-19T13:52:42.543Z,2.00
2019-03-19T13:55:11.765Z,2.10
2019-03-19T13:57:39.636Z,2.27
2019-03-19T14:00:11.500Z,2.07
2019-03-19T14:02:39.253Z,4.10
2019-03-19T14:05:08.263Z,15.17
2019-03-19T14:07:36.022Z,3.60
2019-03-19T14:10:04.861Z,3.03
2019-03-19T14:12:32.573Z,2.77
2019-03-19T14:15:00.355Z,2.10
2019-03-19T14:17:28.317Z,2.50
2019-03-19T14:19:55.959Z,1.97
2019-03-19T14:22:23.633Z,2.80
2019-03-19T14:24:51.517Z,2.27
2019-03-19T14:27:19.376Z,1.47
2019-03-19T14:29:47.246Z,5.70
2019-03-19T14:32:15.000Z,4.10
2019-03-19T14:34:42.785Z,3.60
2019-03-19T14:37:12.406Z,5.23
2019-03-19T14:39:40.154Z,8.27
2019-03-19T14:42:07.921Z,3.27
2019-03-19T14:44:35.667Z,2.33
2019-03-19T14:47:03.465Z,3.33
2019-03-19T14:49:31.217Z,3.53
2019-03-19T14:51:58.969Z,3.20
2019-03-19T14:54:26.743Z,2.30
2019-03-19T14:56:54.489Z,6.27
2019-03-19T14:59:22.155Z,3.27
2019-03-19T15:01:49.959Z,3.80
2019-03-19T15:04:17.702Z,3.87
2019-03-19T15:06:45.464Z,3.27
2019-03-19T15:09:13.246Z,4.03
2019-03-19T15:11:40.984Z,2.43
2019-03-19T15:14:08.775Z,2.20
2019-03-19T15:16:36.541Z,2.60
2019-03-19T15:19:04.401Z,2.67
2019-03-19T15:21:32.084Z,4.90
2019-03-19T15:23:59.727Z,3.43
2019-03-19T15:26:27.495Z,2.43
2019-03-19T15:28:55.356Z,4.73
2019-03-19T15:31:29.848Z,2.83
2019-03-19T15:33:52.429Z,2.17
2019-03-19T15:36:20.188Z,6.53
2019-03-19T15:38:47.970Z,6.33
2019-03-19T15:41:15.830Z,9.40
2019-03-19T15:43:43.700Z,15.17
2019-03-19T15:46:11.566Z,20.20
2019-03-19T15:48:39.328Z,9.33
2019-03-19T15:51:07.207Z,22.03
2019-03-19T15:53:34.888Z,5.80
2019-03-19T15:56:02.732Z,11.37
2019-03-19T15:58:30.606Z,2.20
2019-03-19T16:00:58.481Z,2.90
2019-03-19T16:03:26.240Z,2.00
2019-03-19T16:05:54.010Z,2.40
2019-03-19T16:08:21.692Z,8.00
2019-03-19T16:10:51.532Z,2.40
2019-03-19T16:13:19.036Z,2.77
2019-03-19T16:15:46.805Z,2.53
2019-03-19T16:18:14.949Z,3.63
2019-03-19T16:20:42.644Z,6.23
2019-03-19T16:23:10.415Z,2.70
2019-03-19T16:25:38.286Z,22.70
2019-03-19T16:28:05.945Z,30.07
2019-03-19T16:30:33.713Z,24.93
2019-03-19T16:33:01.468Z,12.37
2019-03-19T16:35:29.251Z,37.13
2019-03-19T16:37:57.004Z,29.33
2019-03-19T16:40:25.057Z,67.17
2019-03-19T16:42:52.955Z,32.63
2019-03-19T16:45:20.820Z,35.40
2019-03-19T16:47:48.927Z,6.63
2019-03-19T16:50:17.174Z,4.00
2019-03-19T16:52:44.812Z,5.53
2019-03-19T16:55:15.981Z,4.90
2019-03-19T16:57:43.609Z,3.67
2019-03-19T17:00:13.043Z,5.70
2019-03-19T17:02:40.691Z,11.40
2019-03-19T17:05:08.967Z,11.23
2019-03-19T17:07:36.655Z,9.50
2019-03-19T17:10:06.912Z,7.92
2019-03-19T17:12:34.621Z,8.03
2019-03-19T17:15:02.312Z,12.67
2019-03-19T17:17:30.066Z,11.03
2019-03-19T17:19:57.723Z,8.87
2019-03-19T17:22:25.480Z,13.93
2019-03-19T17:24:57.551Z,8.27
2019-03-19T17:27:25.428Z,5.73
2019-03-19T17:29:53.197Z,4.80
2019-03-19T17:32:20.948Z,4.53
2019-03-19T17:34:48.624Z,4.47
2019-03-19T17:37:16.332Z,4.20
2019-03-19T17:39:44.040Z,5.33
2019-03-19T17:42:11.836Z,5.40
2019-03-19T17:44:39.485Z,4.80
2019-03-19T17:47:07.176Z,5.13
2019-03-19T17:49:34.908Z,4.27
2019-03-19T17:52:02.551Z,11.20
2019-03-19T17:54:30.450Z,4.90
2019-03-19T17:56:58.319Z,4.23
2019-03-19T17:59:25.964Z,4.23
2019-03-19T18:01:53.740Z,4.77
2019-03-19T18:04:23.025Z,4.27
2019-03-19T18:06:50.787Z,4.70
2019-03-19T18:09:18.577Z,6.60
2019-03-19T18:11:46.322Z,7.20
2019-03-19T18:14:14.009Z,12.70
2019-03-19T18:16:41.973Z,11.23
2019-03-19T18:19:09.630Z,15.00
2019-03-19T18:21:37.409Z,15.57
2019-03-19T18:24:05.638Z,18.50
2019-03-19T18:26:33.356Z,18.30
2019-03-19T18:29:00.983Z,17.23
2019-03-19T18:31:28.789Z,13.27
2019-03-19T18:33:56.477Z,8.13
2019-03-19T18:36:24.308Z,8.37
2019-03-19T18:38:52.085Z,10.00
2019-03-19T18:41:19.840Z,6.17
2019-03-19T18:43:47.502Z,5.83
2019-03-19T18:46:15.377Z,5.73
2019-03-19T18:48:43.132Z,4.37
2019-03-19T18:51:10.896Z,3.80
2019-03-19T18:53:38.668Z,4.00
2019-03-19T18:56:06.429Z,5.07
2019-03-19T18:58:34.210Z,4.27
2019-03-19T19:01:01.977Z,4.47
2019-03-19T19:03:29.845Z,4.40
2019-03-19T19:05:59.376Z,3.67
2019-03-19T19:08:27.091Z,6.57
2019-03-19T19:10:54.764Z,8.47
2019-03-19T19:13:22.524Z,11.67
2019-03-19T19:15:50.296Z,13.93
2019-03-19T19:18:19.815Z,16.23
2019-03-19T19:20:47.512Z,17.63
2019-03-19T19:23:15.445Z,15.97
2019-03-19T19:25:45.027Z,10.10
2019-03-19T19:28:12.716Z,6.83
2019-03-19T19:30:40.486Z,6.10
2019-03-19T19:33:08.356Z,8.07
2019-03-19T19:35:36.220Z,6.47
2019-03-19T19:38:03.976Z,6.80
2019-03-19T19:40:31.859Z,8.10
2019-03-19T19:42:59.613Z,6.30
2019-03-19T19:45:27.393Z,7.03
2019-03-19T19:47:55.057Z,5.07
2019-03-19T19:50:23.217Z,5.33
2019-03-19T19:52:50.997Z,6.03
2019-03-19T19:55:18.859Z,7.80
2019-03-19T19:57:47.020Z,8.33
2019-03-19T20:00:18.427Z,8.47
2019-03-19T20:02:46.353Z,7.60
2019-03-19T20:05:14.247Z,7.83
2019-03-19T20:07:41.996Z,8.63
2019-03-19T20:10:11.298Z,7.83
2019-03-19T20:12:39.057Z,11.03
2019-03-19T20:15:08.093Z,10.97
2019-03-19T20:17:35.922Z,12.30
2019-03-19T20:20:04.949Z,26.90
2019-03-19T20:22:32.695Z,45.43
2019-03-19T20:25:00.445Z,23.23
2019-03-19T20:27:28.111Z,12.77
2019-03-19T20:29:55.983Z,13.07
2019-03-19T20:32:23.851Z,24.47
2019-03-19T20:34:51.718Z,15.07
2019-03-19T20:37:19.489Z,11.63
2019-03-19T20:39:47.246Z,14.53
2019-03-19T20:42:15.022Z,13.97
2019-03-19T20:44:42.782Z,14.17
2019-03-19T20:47:10.423Z,14.83
2019-03-19T20:49:47.319Z,14.63
2019-03-19T20:52:07.505Z,14.73
2019-03-19T20:54:35.378Z,14.53
2019-03-19T20:57:03.148Z,22.87
2019-03-19T20:59:30.900Z,16.83
2019-03-19T21:01:58.577Z,19.67
2019-03-19T21:04:28.950Z,19.33
2019-03-19T21:06:55.866Z,23.63
2019-03-19T21:09:23.615Z,20.47
2019-03-19T21:11:53.281Z,23.40
2019-03-19T21:14:20.791Z,20.13
2019-03-19T21:16:48.427Z,31.23
2019-03-19T21:19:16.213Z,41.40
2019-03-19T21:21:43.876Z,40.10
2019-03-19T21:24:11.593Z,43.27
2019-03-19T21:26:39.413Z,30.60
2019-03-19T21:29:07.164Z,24.40
2019-03-19T21:31:34.919Z,22.37
2019-03-19T21:34:02.714Z,21.97
2019-03-19T21:36:30.577Z,18.80
2019-03-19T21:38:58.323Z,18.37
2019-03-19T21:41:26.105Z,19.47
2019-03-19T21:43:53.873Z,21.23
2019-03-19T21:46:21.693Z,20.30
2019-03-19T21:48:49.611Z,21.70
2019-03-19T21:51:17.477Z,25.20
2019-03-19T21:53:45.226Z,30.00
2019-03-19T21:56:13.010Z,31.37
2019-03-19T21:58:40.879Z,30.00
2019-03-19T22:01:08.522Z,28.17
2019-03-19T22:03:37.950Z,28.07
2019-03-19T22:06:05.713Z,31.50
2019-03-19T22:08:33.782Z,36.33
2019-03-19T22:11:01.558Z,43.50
2019-03-19T22:13:29.576Z,39.70
2019-03-19T22:15:57.394Z,45.20
2019-03-19T22:18:25.144Z,59.63
2019-03-19T22:20:53.005Z,58.30
2019-03-19T22:23:20.900Z,49.77
2019-03-19T22:25:48.748Z,56.00
2019-03-19T22:28:16.628Z,49.60
2019-03-19T22:30:44.695Z,45.20
2019-03-19T22:33:12.460Z,46.53
2019-03-19T22:35:40.226Z,45.23
2019-03-19T22:38:08.044Z,39.53
2019-03-19T22:40:36.275Z,28.37
2019-03-19T22:43:04.149Z,33.57
2019-03-19T22:45:32.007Z,41.10
2019-03-19T22:47:59.645Z,33.00
2019-03-19T22:50:27.451Z,35.10
2019-03-19T22:52:55.208Z,42.83
2019-03-19T22:55:28.900Z,46.73
2019-03-19T22:57:52.683Z,39.90
2019-03-19T23:00:23.579Z,38.93
2019-03-19T23:02:51.702Z,32.93
2019-03-19T23:05:19.875Z,34.67
2019-03-19T23:07:48.043Z,35.17
2019-03-19T23:10:15.777Z,33.87
2019-03-19T23:12:43.586Z,34.60
2019-03-19T23:15:12.058Z,33.03
2019-03-19T23:17:39.920Z,35.97
2019-03-19T23:20:09.138Z,36.93
2019-03-19T23:22:36.785Z,37.77
2019-03-19T23:25:05.787Z,38.13
2019-03-19T23:27:34.067Z,39.20
2019-03-19T23:30:01.936Z,35.70
2019-03-19T23:32:29.615Z,34.17
2019-03-19T23:34:57.463Z,32.00
2019-03-19T23:37:25.228Z,34.37
2019-03-19T23:39:52.897Z,32.13
2019-03-19T23:42:20.657Z,32.30
2019-03-19T23:44:48.531Z,33.60
2019-03-19T23:47:16.496Z,31.97
2019-03-19T23:49:44.171Z,33.73
2019-03-19T23:52:11.929Z,32.73
2019-03-19T23:54:39.692Z,31.17
2019-03-19T23:57:07.394Z,31.17
2019-03-19T23:59:35.130Z,30.40
